createdAt,value
2022-08-23T00:00:13.166Z,59.23
2022-08-23T00:01:09.606Z,59.44
2022-08-23T00:02:23.233Z,59.64
2022-08-23T00:03:10.746Z,59.64
2022-08-23T00:04:09.551Z,59.33
2022-08-23T00:05:09.935Z,59.44
2022-08-23T00:06:09.561Z,59.53
2022-08-23T00:07:09.539Z,59.53
2022-08-23T00:08:09.513Z,59.83
2022-08-23T00:09:09.502Z,59.53
2022-08-23T00:10:09.486Z,59.44
2022-08-23T00:11:09.467Z,59.53
2022-08-23T00:12:09.464Z,60.33
2022-08-23T00:13:09.466Z,60.14
2022-08-23T00:14:09.466Z,60.03
2022-08-23T00:15:09.672Z,59.44
2022-08-23T00:16:09.440Z,59.33
2022-08-23T00:17:09.409Z,59.46
2022-08-23T00:18:09.414Z,59.16
2022-08-23T00:19:10.240Z,59.16
2022-08-23T00:20:09.445Z,59.56
2022-08-23T00:21:09.485Z,59.46
2022-08-23T00:22:09.396Z,59.66
2022-08-23T00:23:09.336Z,59.66
2022-08-23T00:24:09.375Z,59.96
2022-08-23T00:25:09.358Z,60.10
2022-08-23T00:26:09.325Z,60.39
2022-08-23T00:27:09.307Z,59.99
2022-08-23T00:28:14.953Z,60.69
2022-08-23T00:29:10.289Z,60.69
2022-08-23T00:30:09.257Z,61.19
2022-08-23T00:31:09.971Z,61.00
2022-08-23T00:32:10.248Z,60.82
2022-08-23T00:33:09.248Z,61.13
2022-08-23T00:34:09.219Z,61.02
2022-08-23T00:35:09.249Z,61.13
2022-08-23T00:36:09.203Z,61.33
2022-08-23T00:37:09.291Z,61.22
2022-08-23T00:38:34.367Z,61.52
2022-08-23T00:39:10.197Z,61.33
2022-08-23T00:40:09.316Z,61.35
2022-08-23T00:41:09.162Z,61.55
2022-08-23T00:42:09.156Z,61.76
2022-08-23T00:43:09.138Z,61.66
2022-08-23T00:44:09.106Z,62.06
2022-08-23T00:45:09.103Z,61.96
2022-08-23T00:46:09.083Z,61.76
2022-08-23T00:47:09.069Z,61.96
2022-08-23T00:48:09.102Z,62.26
2022-08-23T00:49:09.076Z,62.36
2022-08-23T00:50:23.374Z,63.09
2022-08-23T00:51:10.025Z,63.29
2022-08-23T00:52:09.003Z,63.79
2022-08-23T00:53:09.014Z,64.00
2022-08-23T00:54:09.005Z,64.60
2022-08-23T00:55:09.064Z,64.90
2022-08-23T00:56:09.007Z,65.44
2022-08-23T00:57:09.317Z,65.84
2022-08-23T00:58:08.948Z,66.24
2022-08-23T00:59:08.988Z,66.94
2022-08-23T01:00:08.974Z,67.35
2022-08-23T01:01:08.958Z,67.27
2022-08-23T01:02:08.926Z,67.98
2022-08-23T01:03:08.901Z,68.28
2022-08-23T01:04:08.897Z,68.78
2022-08-23T01:05:08.876Z,69.29
2022-08-23T01:06:08.888Z,69.89
2022-08-23T01:07:08.886Z,70.09
2022-08-23T01:08:08.838Z,70.39
2022-08-23T01:09:08.842Z,70.50
2022-08-23T01:10:08.797Z,70.50
2022-08-23T01:11:08.957Z,69.59
2022-08-23T01:12:08.788Z,68.71
2022-08-23T01:13:08.790Z,69.32
2022-08-23T01:14:08.849Z,69.42
2022-08-23T01:15:08.749Z,68.91
2022-08-23T01:16:08.733Z,68.01
2022-08-23T01:17:08.781Z,67.71
2022-08-23T01:18:08.774Z,67.11
2022-08-23T01:19:08.702Z,66.17
2022-08-23T01:20:10.265Z,65.97
2022-08-23T01:21:10.313Z,65.56
2022-08-23T01:22:08.661Z,65.36
2022-08-23T01:23:08.696Z,64.99
2022-08-23T01:24:08.663Z,66.10
2022-08-23T01:25:09.240Z,66.50
2022-08-23T01:26:08.729Z,65.70
2022-08-23T01:27:08.735Z,65.70
2022-08-23T01:28:08.600Z,66.30
2022-08-23T01:29:08.618Z,66.83
2022-08-23T01:30:08.584Z,67.24
2022-08-23T01:31:08.573Z,67.54
2022-08-23T01:32:08.556Z,68.24
2022-08-23T01:33:08.983Z,68.78
2022-08-23T01:34:08.525Z,69.18
2022-08-23T01:35:08.552Z,69.69
2022-08-23T01:36:09.720Z,69.69
2022-08-23T01:37:08.535Z,69.89
2022-08-23T01:38:08.503Z,70.42
2022-08-23T01:39:08.475Z,70.62
2022-08-23T01:40:08.589Z,70.73
2022-08-23T01:41:08.456Z,70.93
2022-08-23T01:42:08.426Z,70.93
2022-08-23T01:43:08.435Z,71.13
2022-08-23T01:44:08.417Z,71.26
2022-08-23T01:45:08.407Z,71.37
2022-08-23T01:46:08.407Z,71.47
2022-08-23T01:47:08.376Z,71.77
2022-08-23T01:48:08.387Z,71.67
2022-08-23T01:49:08.597Z,71.77
2022-08-23T01:50:08.356Z,72.17
2022-08-23T01:51:08.371Z,72.67
2022-08-23T01:52:08.336Z,73.42
2022-08-23T01:53:08.315Z,73.82
2022-08-23T01:54:08.297Z,73.52
2022-08-23T01:55:08.298Z,73.62
2022-08-23T01:56:08.270Z,73.22
2022-08-23T01:57:08.289Z,72.11
2022-08-23T01:58:08.260Z,72.11
2022-08-23T01:59:08.239Z,71.91
2022-08-23T02:00:08.220Z,71.60
2022-08-23T02:01:08.221Z,71.70
2022-08-23T02:02:08.284Z,71.30
2022-08-23T02:03:08.193Z,70.69
2022-08-23T02:04:08.195Z,70.59
2022-08-23T02:05:08.180Z,70.69
2022-08-23T02:06:08.162Z,70.89
2022-08-23T02:07:08.156Z,71.00
2022-08-23T02:08:08.166Z,71.20
2022-08-23T02:09:17.898Z,71.30
2022-08-23T02:10:09.144Z,71.50
2022-08-23T02:11:08.121Z,71.44
2022-08-23T02:12:08.091Z,71.33
2022-08-23T02:13:08.113Z,71.53
2022-08-23T02:14:08.076Z,71.64
2022-08-23T02:15:08.087Z,71.33
2022-08-23T02:16:08.042Z,71.53
2022-08-23T02:17:08.042Z,71.53
2022-08-23T02:18:08.024Z,71.44
2022-08-23T02:19:08.035Z,71.53
2022-08-23T02:20:08.004Z,71.64
2022-08-23T02:22:07.994Z,71.57
2022-08-23T02:23:07.976Z,71.44
2022-08-23T02:24:08.000Z,71.33
2022-08-23T02:25:07.948Z,71.13
2022-08-23T02:26:07.937Z,70.93
2022-08-23T02:27:07.934Z,70.83
2022-08-23T02:28:07.915Z,70.73
2022-08-23T02:29:07.913Z,71.23
2022-08-23T02:30:07.914Z,71.37
2022-08-23T02:31:07.891Z,71.57
2022-08-23T02:32:07.876Z,71.47
2022-08-23T02:33:07.870Z,71.47
2022-08-23T02:34:07.837Z,71.47
2022-08-23T02:35:07.932Z,71.37
2022-08-23T02:36:07.843Z,71.37
2022-08-23T02:37:07.808Z,71.60
2022-08-23T02:38:07.812Z,71.80
2022-08-23T02:39:07.799Z,72.00
2022-08-23T02:40:08.572Z,71.60
2022-08-23T02:41:08.219Z,72.00
2022-08-23T02:42:07.790Z,72.21
2022-08-23T02:43:07.842Z,72.61
2022-08-23T02:44:07.768Z,72.71
2022-08-23T02:45:07.756Z,72.75
2022-08-23T02:46:07.829Z,72.44
2022-08-23T02:47:07.737Z,72.04
2022-08-23T02:48:07.693Z,72.04
2022-08-23T02:49:07.740Z,72.14
2022-08-23T02:50:07.690Z,72.34
2022-08-23T02:51:07.672Z,72.34
2022-08-23T02:52:07.672Z,72.34
2022-08-23T02:53:07.747Z,72.34
2022-08-23T02:54:07.643Z,72.55
2022-08-23T02:55:07.645Z,72.64
2022-08-23T02:56:17.108Z,72.64
2022-08-23T02:57:08.632Z,72.64
2022-08-23T02:58:07.598Z,72.64
2022-08-23T02:59:07.582Z,72.75
2022-08-23T03:00:07.644Z,72.85
2022-08-23T03:01:07.598Z,72.88
2022-08-23T03:02:07.765Z,73.08
2022-08-23T03:03:07.727Z,73.28
2022-08-23T03:04:07.753Z,73.28
2022-08-23T03:05:07.601Z,73.39
2022-08-23T03:06:25.475Z,73.49
2022-08-23T03:07:08.584Z,73.49
2022-08-23T03:08:07.650Z,73.83
2022-08-23T03:09:07.738Z,74.03
2022-08-23T03:10:07.566Z,73.99
2022-08-23T03:11:08.103Z,73.63
2022-08-23T03:12:07.599Z,73.49
2022-08-23T03:13:07.455Z,73.49
2022-08-23T03:14:07.467Z,73.49
2022-08-23T03:15:07.667Z,73.28
2022-08-23T03:16:07.566Z,73.19
2022-08-23T03:17:07.517Z,73.19
2022-08-23T03:18:07.588Z,73.32
2022-08-23T03:19:07.543Z,73.52
2022-08-23T03:20:07.506Z,73.43
2022-08-23T03:21:07.449Z,73.72
2022-08-23T03:22:07.527Z,73.93
2022-08-23T03:23:07.504Z,74.23
2022-08-23T03:24:10.383Z,74.16
2022-08-23T03:25:07.564Z,74.47
2022-08-23T03:26:07.351Z,74.47
2022-08-23T03:27:07.414Z,74.67
2022-08-23T03:28:07.390Z,74.77
2022-08-23T03:29:07.396Z,74.87
2022-08-23T03:30:11.431Z,74.77
2022-08-23T03:31:08.414Z,74.77
2022-08-23T03:32:07.546Z,74.67
2022-08-23T03:33:07.584Z,74.91
2022-08-23T03:34:07.255Z,74.91
2022-08-23T03:35:14.364Z,75.01
2022-08-23T03:37:28.632Z,75.21
2022-08-23T03:38:28.503Z,75.01
2022-08-23T03:39:28.556Z,75.01
2022-08-23T03:40:28.635Z,75.21
2022-08-23T03:41:28.598Z,75.21
2022-08-23T03:42:31.205Z,75.42
2022-08-23T03:43:28.523Z,75.21
2022-08-23T03:44:28.465Z,75.31
2022-08-23T03:45:28.534Z,75.52
2022-08-23T03:46:33.330Z,75.52
2022-08-23T03:47:29.502Z,75.76
2022-08-23T03:48:28.434Z,76.06
2022-08-23T03:49:28.484Z,75.96
2022-08-23T03:50:28.406Z,76.06
2022-08-23T03:51:28.504Z,75.96
2022-08-23T03:52:28.554Z,75.85
2022-08-23T03:53:28.565Z,75.85
2022-08-23T03:54:28.458Z,75.96
2022-08-23T03:55:28.464Z,76.26
2022-08-23T03:56:28.426Z,76.06
2022-08-23T03:57:28.377Z,76.06
2022-08-23T03:58:28.369Z,76.16
2022-08-23T03:59:28.358Z,76.06
2022-08-23T04:00:28.375Z,75.96
2022-08-23T04:01:28.939Z,76.16
2022-08-23T04:02:28.258Z,76.46
2022-08-23T04:03:28.279Z,76.60
2022-08-23T04:04:28.228Z,76.90
2022-08-23T04:05:28.209Z,77.11
2022-08-23T04:06:28.197Z,77.51
2022-08-23T04:07:28.199Z,77.61
2022-08-23T04:08:33.234Z,77.31
2022-08-23T04:09:29.170Z,77.21
2022-08-23T04:10:28.139Z,77.21
2022-08-23T04:11:28.121Z,77.21
2022-08-23T04:12:28.120Z,77.31
2022-08-23T04:13:28.129Z,77.82
2022-08-23T04:14:28.093Z,77.51
2022-08-23T04:15:28.080Z,77.51
2022-08-23T04:16:28.073Z,77.61
2022-08-23T04:17:32.076Z,77.61
2022-08-23T04:18:28.100Z,77.61
2022-08-23T04:19:28.062Z,77.92
2022-08-23T04:20:28.029Z,77.61
2022-08-23T04:21:28.001Z,77.61
2022-08-23T04:22:27.990Z,77.61
2022-08-23T04:23:28.035Z,77.61
2022-08-23T04:24:27.992Z,78.12
2022-08-23T04:25:33.606Z,78.12
2022-08-23T04:26:30.336Z,78.12
2022-08-23T04:27:27.932Z,78.22
2022-08-23T04:28:27.931Z,78.22
2022-08-23T04:29:34.199Z,78.12
2022-08-23T04:30:28.929Z,77.92
2022-08-23T04:31:27.897Z,78.02
2022-08-23T04:32:28.903Z,77.92
2022-08-23T04:33:27.881Z,77.72
2022-08-23T04:34:28.801Z,77.72
2022-08-23T04:35:27.874Z,77.72
2022-08-23T04:36:27.824Z,77.61
2022-08-23T04:37:28.814Z,77.61
2022-08-23T04:38:27.824Z,77.82
2022-08-23T04:39:27.816Z,77.92
2022-08-23T04:40:27.805Z,78.02
2022-08-23T04:41:27.797Z,78.12
2022-08-23T04:42:27.805Z,78.42
2022-08-23T04:43:27.761Z,78.42
2022-08-23T04:44:27.765Z,78.53
2022-08-23T04:45:27.741Z,78.63
2022-08-23T04:46:27.757Z,78.63
2022-08-23T04:47:27.756Z,78.63
2022-08-23T04:48:27.697Z,78.63
2022-08-23T04:49:27.685Z,78.73
2022-08-23T04:50:27.687Z,78.63
2022-08-23T04:51:27.668Z,78.83
2022-08-23T04:52:27.705Z,78.63
2022-08-23T04:53:27.668Z,78.53
2022-08-23T04:54:27.642Z,78.42
2022-08-23T04:55:27.619Z,78.42
2022-08-23T04:56:27.630Z,78.53
2022-08-23T04:57:27.618Z,78.33
2022-08-23T04:58:27.619Z,78.42
2022-08-23T04:59:27.569Z,78.33
2022-08-23T05:00:27.861Z,78.53
2022-08-23T05:01:27.600Z,78.63
2022-08-23T05:02:27.555Z,78.53
2022-08-23T05:03:27.556Z,78.42
2022-08-23T05:04:27.540Z,78.42
2022-08-23T05:05:27.508Z,78.42
2022-08-23T05:06:27.474Z,78.33
2022-08-23T05:07:41.602Z,78.42
2022-08-23T05:08:28.469Z,78.33
2022-08-23T05:09:27.478Z,78.33
2022-08-23T05:10:27.482Z,78.42
2022-08-23T05:11:27.430Z,78.42
2022-08-23T05:12:28.342Z,78.63
2022-08-23T05:13:27.403Z,78.63
2022-08-23T05:14:27.408Z,78.73
2022-08-23T05:15:27.388Z,78.63
2022-08-23T05:16:27.391Z,78.53
2022-08-23T05:17:27.366Z,78.63
2022-08-23T05:18:27.342Z,78.39
2022-08-23T05:19:27.319Z,78.28
2022-08-23T05:20:27.323Z,78.19
2022-08-23T05:21:27.318Z,78.28
2022-08-23T05:22:27.292Z,78.19
2022-08-23T05:23:32.192Z,78.19
2022-08-23T05:24:28.264Z,78.19
2022-08-23T05:25:27.247Z,78.59
2022-08-23T05:26:27.303Z,78.28
2022-08-23T05:27:27.255Z,78.19
2022-08-23T05:28:27.223Z,78.19
2022-08-23T05:29:27.203Z,78.19
2022-08-23T05:30:27.195Z,78.39
2022-08-23T05:31:27.177Z,78.49
2022-08-23T05:32:30.389Z,78.15
2022-08-23T05:33:28.204Z,77.95
2022-08-23T05:34:27.146Z,77.95
2022-08-23T05:35:27.129Z,77.95
2022-08-23T05:36:27.128Z,78.15
2022-08-23T05:37:27.096Z,78.45
2022-08-23T05:38:27.092Z,78.25
2022-08-23T05:39:36.299Z,78.35
2022-08-23T05:40:28.059Z,78.25
2022-08-23T05:41:38.057Z,78.66
2022-08-23T05:42:28.042Z,79.16
2022-08-23T05:43:27.032Z,79.02
2022-08-23T05:44:27.040Z,79.02
2022-08-23T05:45:27.008Z,79.02
2022-08-23T05:46:28.501Z,79.02
2022-08-23T05:47:26.998Z,78.82
2022-08-23T05:48:26.977Z,78.08
2022-08-23T05:49:26.981Z,77.57
2022-08-23T05:50:26.970Z,77.26
2022-08-23T05:51:26.932Z,77.17
2022-08-23T05:52:26.910Z,76.93
2022-08-23T05:53:27.704Z,76.52
2022-08-23T05:54:26.931Z,76.62
2022-08-23T05:55:34.613Z,77.03
2022-08-23T05:56:28.476Z,76.22
2022-08-23T05:57:26.884Z,76.12
2022-08-23T05:58:27.736Z,75.88
2022-08-23T05:59:27.582Z,76.18
2022-08-23T06:00:38.112Z,75.68
2022-08-23T06:01:27.934Z,75.98
2022-08-23T06:02:26.828Z,75.57
2022-08-23T06:03:27.423Z,76.04
2022-08-23T06:04:26.953Z,76.25
2022-08-23T06:05:26.766Z,74.84
2022-08-23T06:06:35.033Z,74.69
2022-08-23T06:07:27.772Z,75.40
2022-08-23T06:08:26.773Z,74.60
2022-08-23T06:09:26.925Z,74.40
2022-08-23T06:10:28.494Z,74.56
2022-08-23T06:11:26.758Z,74.36
2022-08-23T06:12:26.753Z,73.85
2022-08-23T06:13:26.714Z,73.52
2022-08-23T06:14:26.775Z,73.42
2022-08-23T06:15:26.667Z,73.08
2022-08-23T06:16:26.646Z,73.58
2022-08-23T06:17:26.635Z,72.98
2022-08-23T06:18:26.638Z,72.98
2022-08-23T06:19:26.657Z,73.25
2022-08-23T06:20:26.670Z,72.54
2022-08-23T06:21:26.597Z,71.80
2022-08-23T06:22:26.572Z,71.70
2022-08-23T06:23:26.579Z,71.40
2022-08-23T06:24:26.565Z,70.76
2022-08-23T06:25:26.567Z,71.06
2022-08-23T06:26:28.495Z,70.43
2022-08-23T06:27:27.427Z,70.23
2022-08-23T06:28:28.193Z,69.99
2022-08-23T06:29:26.797Z,69.59
2022-08-23T06:30:26.551Z,69.59
2022-08-23T06:31:26.601Z,69.35
2022-08-23T06:32:26.546Z,69.45
2022-08-23T06:33:26.620Z,68.92
2022-08-23T06:34:26.630Z,68.62
2022-08-23T06:35:37.877Z,68.59
2022-08-23T06:36:27.485Z,68.68
2022-08-23T06:37:26.454Z,67.88
2022-08-23T06:38:26.428Z,67.95
2022-08-23T06:39:26.434Z,67.14
2022-08-23T06:40:27.336Z,66.52
2022-08-23T06:41:26.745Z,66.71
2022-08-23T06:42:38.290Z,66.78
2022-08-23T06:43:27.355Z,65.78
2022-08-23T06:44:26.334Z,65.08
2022-08-23T06:45:33.806Z,64.78
2022-08-23T06:46:29.275Z,64.88
2022-08-23T06:47:27.063Z,66.08
2022-08-23T06:48:26.398Z,65.68
2022-08-23T06:49:26.438Z,65.98
2022-08-23T06:50:26.365Z,65.58
2022-08-23T06:51:27.860Z,64.95
2022-08-23T06:52:27.552Z,64.54
2022-08-23T06:53:26.299Z,64.25
2022-08-23T06:54:26.517Z,64.31
2022-08-23T06:55:26.184Z,63.42
2022-08-23T06:56:26.354Z,63.92
2022-08-23T06:57:26.155Z,63.58
2022-08-23T06:58:26.479Z,63.45
2022-08-23T06:59:26.219Z,63.15
2022-08-23T07:00:26.279Z,62.32
2022-08-23T07:01:44.805Z,62.42
2022-08-23T07:02:27.249Z,62.72
2022-08-23T07:03:26.137Z,61.62
2022-08-23T07:04:26.098Z,61.72
2022-08-23T07:05:26.288Z,61.19
2022-08-23T07:06:26.126Z,60.59
2022-08-23T07:07:39.756Z,59.86
2022-08-23T07:08:27.057Z,58.94
2022-08-23T07:09:26.038Z,58.24
2022-08-23T07:10:26.567Z,57.93
2022-08-23T07:11:26.454Z,58.01
2022-08-23T07:12:26.050Z,57.91
2022-08-23T07:13:25.987Z,58.21
2022-08-23T07:14:26.011Z,58.71
2022-08-23T07:15:25.961Z,57.61
2022-08-23T07:16:26.066Z,58.08
2022-08-23T07:17:25.972Z,57.78
2022-08-23T07:18:26.024Z,56.98
2022-08-23T07:19:29.077Z,57.88
2022-08-23T07:20:25.903Z,57.26
2022-08-23T07:21:25.892Z,57.39
2022-08-23T07:22:25.971Z,57.35
2022-08-23T07:23:25.872Z,56.96
2022-08-23T07:24:30.633Z,56.85
2022-08-23T07:25:26.912Z,56.46
2022-08-23T07:26:25.834Z,57.33
2022-08-23T07:27:25.888Z,56.43
2022-08-23T07:28:25.824Z,56.03
2022-08-23T07:29:25.804Z,56.13
2022-08-23T07:30:25.816Z,56.13
2022-08-23T07:31:25.817Z,56.03
2022-08-23T07:32:25.794Z,56.10
2022-08-23T07:33:25.795Z,55.11
2022-08-23T07:34:25.758Z,55.51
2022-08-23T07:35:25.761Z,55.08
2022-08-23T07:36:25.739Z,54.49
2022-08-23T07:37:25.706Z,55.11
2022-08-23T07:38:30.635Z,55.11
2022-08-23T07:39:26.716Z,55.18
2022-08-23T07:40:27.651Z,54.86
2022-08-23T07:41:25.650Z,54.26
2022-08-23T07:42:25.648Z,53.94
2022-08-23T07:43:25.627Z,53.36
2022-08-23T07:44:27.131Z,53.86
2022-08-23T07:45:25.648Z,54.03
2022-08-23T07:46:25.633Z,53.94
2022-08-23T07:47:25.586Z,53.81
2022-08-23T07:48:43.571Z,53.24
2022-08-23T07:49:29.133Z,53.64
2022-08-23T07:50:25.560Z,53.96
2022-08-23T07:51:26.579Z,54.56
2022-08-23T07:52:25.561Z,53.83
2022-08-23T07:53:31.836Z,53.34
2022-08-23T07:54:26.514Z,52.94
2022-08-23T07:55:25.539Z,53.31
2022-08-23T07:56:25.495Z,53.11
2022-08-23T07:57:25.482Z,52.72
2022-08-23T07:58:25.475Z,52.81
2022-08-23T07:59:25.466Z,53.02
2022-08-23T08:00:25.442Z,52.91
2022-08-23T08:01:25.508Z,53.14
2022-08-23T08:02:25.467Z,52.84
2022-08-23T08:03:25.393Z,53.53
2022-08-23T08:04:25.415Z,53.96
2022-08-23T08:05:25.409Z,53.86
2022-08-23T08:06:25.427Z,53.76
2022-08-23T08:07:25.358Z,53.76
2022-08-23T08:08:25.367Z,54.06
2022-08-23T08:09:25.336Z,53.86
2022-08-23T08:10:25.356Z,53.66
2022-08-23T08:11:25.319Z,53.74
2022-08-23T08:12:25.348Z,53.27
2022-08-23T08:13:25.297Z,53.56
2022-08-23T08:14:25.276Z,53.34
2022-08-23T08:15:25.266Z,52.84
2022-08-23T08:16:25.306Z,52.94
2022-08-23T08:17:27.506Z,53.34
2022-08-23T08:18:25.306Z,53.24
2022-08-23T08:19:25.219Z,52.94
2022-08-23T08:20:25.228Z,52.94
2022-08-23T08:21:25.211Z,52.91
2022-08-23T08:22:25.199Z,52.62
2022-08-23T08:23:25.211Z,52.42
2022-08-23T08:24:25.162Z,52.94
2022-08-23T08:25:25.149Z,52.84
2022-08-23T08:26:25.129Z,53.04
2022-08-23T08:27:25.129Z,52.94
2022-08-23T08:28:25.121Z,53.06
2022-08-23T08:29:25.148Z,53.89
2022-08-23T08:30:26.221Z,54.19
2022-08-23T08:31:25.092Z,53.69
2022-08-23T08:32:25.092Z,54.08
2022-08-23T08:33:25.066Z,53.76
2022-08-23T08:34:26.085Z,53.36
2022-08-23T08:35:25.084Z,53.46
2022-08-23T08:36:25.054Z,53.66
2022-08-23T08:37:25.035Z,54.26
2022-08-23T08:38:25.017Z,53.86
2022-08-23T08:39:25.025Z,53.74
2022-08-23T08:40:25.016Z,53.41
2022-08-23T08:41:24.975Z,52.51
2022-08-23T08:42:24.971Z,51.40
2022-08-23T08:43:24.948Z,51.77
2022-08-23T08:44:24.940Z,50.98
2022-08-23T08:45:26.287Z,50.45
2022-08-23T08:46:25.987Z,49.44
2022-08-23T08:47:24.906Z,49.26
2022-08-23T08:48:24.906Z,49.24
2022-08-23T08:49:24.888Z,49.24
2022-08-23T08:50:24.868Z,49.11
2022-08-23T08:51:24.888Z,49.14
2022-08-23T08:52:24.866Z,49.34
2022-08-23T08:53:24.839Z,49.21
2022-08-23T08:54:24.837Z,49.09
2022-08-23T08:55:24.841Z,48.20
2022-08-23T08:56:24.826Z,48.50
2022-08-23T08:57:27.669Z,48.50
2022-08-23T08:58:24.767Z,47.61
2022-08-23T08:59:25.710Z,48.00
2022-08-23T09:00:24.742Z,48.20
2022-08-23T09:01:24.824Z,47.90
2022-08-23T09:02:32.593Z,48.30
2022-08-23T09:03:25.846Z,48.82
2022-08-23T09:04:24.701Z,49.44
2022-08-23T09:05:24.691Z,49.14
2022-08-23T09:06:24.685Z,49.11
2022-08-23T09:07:26.894Z,48.72
2022-08-23T09:08:25.714Z,48.80
2022-08-23T09:09:24.642Z,49.19
2022-08-23T09:10:25.505Z,48.80
2022-08-23T09:11:24.626Z,48.60
2022-08-23T09:12:24.618Z,48.38
2022-08-23T09:13:24.615Z,48.08
2022-08-23T09:14:24.615Z,47.26
2022-08-23T09:15:24.576Z,47.06
2022-08-23T09:16:24.564Z,48.15
2022-08-23T09:17:24.573Z,47.24
2022-08-23T09:18:24.561Z,47.75
2022-08-23T09:19:25.094Z,47.14
2022-08-23T09:20:24.519Z,46.72
2022-08-23T09:21:24.506Z,46.52
2022-08-23T09:22:24.498Z,47.02
2022-08-23T09:23:24.517Z,46.42
2022-08-23T09:24:24.480Z,46.11
2022-08-23T09:25:24.518Z,46.12
2022-08-23T09:26:24.452Z,45.61
2022-08-23T09:27:24.449Z,45.93
2022-08-23T09:28:24.461Z,46.03
2022-08-23T09:29:24.418Z,46.62
2022-08-23T09:30:24.404Z,46.33
2022-08-23T09:31:24.460Z,46.23
2022-08-23T09:32:24.391Z,46.20
2022-08-23T09:33:26.350Z,46.70
2022-08-23T09:34:24.384Z,46.50
2022-08-23T09:35:24.342Z,46.70
2022-08-23T09:36:24.392Z,46.01
2022-08-23T09:37:24.353Z,45.89
2022-08-23T09:38:24.390Z,45.79
2022-08-23T09:39:24.343Z,45.76
2022-08-23T09:40:25.327Z,45.47
2022-08-23T09:41:24.345Z,45.05
2022-08-23T09:42:24.318Z,44.95
2022-08-23T09:43:24.280Z,44.65
2022-08-23T09:44:24.335Z,45.54
2022-08-23T09:45:24.292Z,45.86
2022-08-23T09:46:24.355Z,46.40
2022-08-23T09:47:24.303Z,47.09
2022-08-23T09:48:28.124Z,47.71
2022-08-23T09:49:25.310Z,47.39
2022-08-23T09:50:24.292Z,46.97
2022-08-23T09:51:24.196Z,46.06
2022-08-23T09:52:24.159Z,45.45
2022-08-23T09:53:24.148Z,45.15
2022-08-23T09:54:24.169Z,44.75
2022-08-23T09:55:24.120Z,44.43
2022-08-23T09:56:24.136Z,44.04
2022-08-23T09:57:24.100Z,44.54
2022-08-23T09:58:24.097Z,44.12
2022-08-23T09:59:26.947Z,43.70
2022-08-23T10:00:24.060Z,44.22
2022-08-23T10:01:24.114Z,44.22
2022-08-23T10:02:24.073Z,44.22
2022-08-23T10:03:25.195Z,43.92
2022-08-23T10:04:24.071Z,44.69
2022-08-23T10:05:24.031Z,44.00
2022-08-23T10:06:24.022Z,44.00
2022-08-23T10:07:25.003Z,44.29
2022-08-23T10:08:24.003Z,43.98
2022-08-23T10:09:23.973Z,43.88
2022-08-23T10:10:23.963Z,44.10
2022-08-23T10:11:24.002Z,44.29
2022-08-23T10:12:23.943Z,44.71
2022-08-23T10:13:23.935Z,44.81
2022-08-23T10:14:24.388Z,44.59
2022-08-23T10:15:25.043Z,43.41
2022-08-23T10:16:24.004Z,42.89
2022-08-23T10:17:23.909Z,43.38
2022-08-23T10:18:23.920Z,43.38
2022-08-23T10:19:23.877Z,43.09
2022-08-23T10:20:23.881Z,42.79
2022-08-23T10:21:24.124Z,43.09
2022-08-23T10:22:23.847Z,42.77
2022-08-23T10:23:23.842Z,42.07
2022-08-23T10:24:24.140Z,42.26
2022-08-23T10:25:23.815Z,43.34
2022-08-23T10:26:23.767Z,43.05
2022-08-23T10:27:23.774Z,42.07
2022-08-23T10:28:23.788Z,42.07
2022-08-23T10:29:23.762Z,41.96
2022-08-23T10:30:23.768Z,41.45
2022-08-23T10:31:23.741Z,41.57
2022-08-23T10:32:23.736Z,41.67
2022-08-23T10:33:23.690Z,42.58
2022-08-23T10:34:23.714Z,42.36
2022-08-23T10:35:23.681Z,41.96
2022-08-23T10:36:23.677Z,41.77
2022-08-23T10:37:23.709Z,42.26
2022-08-23T10:38:23.653Z,41.77
2022-08-23T10:39:23.700Z,41.77
2022-08-23T10:40:23.679Z,41.47
2022-08-23T10:41:23.612Z,41.77
2022-08-23T10:42:23.605Z,41.77
2022-08-23T10:43:23.594Z,42.07
2022-08-23T10:44:23.623Z,42.26
2022-08-23T10:45:23.618Z,41.85
2022-08-23T10:46:23.578Z,40.86
2022-08-23T10:47:23.523Z,41.25
2022-08-23T10:48:23.522Z,41.47
2022-08-23T10:49:23.508Z,41.47
2022-08-23T10:50:23.502Z,41.86
2022-08-23T10:51:31.657Z,41.47
2022-08-23T10:52:24.469Z,42.36
2022-08-23T10:53:23.486Z,41.67
2022-08-23T10:54:23.458Z,41.45
2022-08-23T10:55:23.483Z,41.35
2022-08-23T10:56:23.419Z,40.96
2022-08-23T10:57:23.490Z,41.25
2022-08-23T10:58:23.429Z,41.75
2022-08-23T10:59:23.409Z,41.35
2022-08-23T11:00:23.399Z,41.04
2022-08-23T11:01:23.410Z,40.62
2022-08-23T11:02:23.452Z,40.82
2022-08-23T11:03:26.886Z,40.43
2022-08-23T11:04:25.230Z,39.82
2022-08-23T11:05:23.320Z,39.62
2022-08-23T11:06:23.311Z,39.82
2022-08-23T11:07:23.338Z,39.42
2022-08-23T11:08:23.364Z,39.92
2022-08-23T11:09:25.899Z,39.82
2022-08-23T11:10:23.293Z,39.94
2022-08-23T11:11:23.265Z,40.92
2022-08-23T11:12:23.235Z,39.64
2022-08-23T11:13:23.334Z,39.72
2022-08-23T11:14:23.249Z,39.23
2022-08-23T11:15:23.235Z,39.82
2022-08-23T11:16:23.212Z,39.42
2022-08-23T11:17:23.203Z,39.21
2022-08-23T11:18:23.185Z,39.00
2022-08-23T11:19:23.205Z,38.78
2022-08-23T11:20:23.156Z,38.39
2022-08-23T11:21:23.152Z,38.70
2022-08-23T11:22:23.127Z,38.92
2022-08-23T11:23:23.133Z,40.25
2022-08-23T11:24:23.127Z,40.45
2022-08-23T11:25:23.114Z,40.45
2022-08-23T11:26:23.099Z,39.64
2022-08-23T11:27:23.072Z,40.13
2022-08-23T11:28:23.059Z,40.53
2022-08-23T11:29:23.053Z,40.92
2022-08-23T11:30:23.103Z,41.00
2022-08-23T11:31:23.127Z,39.72
2022-08-23T11:32:25.869Z,39.01
2022-08-23T11:33:24.000Z,38.62
2022-08-23T11:34:23.120Z,39.50
2022-08-23T11:35:24.009Z,39.32
2022-08-23T11:36:22.980Z,39.52
2022-08-23T11:37:23.433Z,39.52
2022-08-23T11:38:22.979Z,39.62
2022-08-23T11:39:25.379Z,39.23
2022-08-23T11:40:22.971Z,39.40
2022-08-23T11:41:22.956Z,38.72
2022-08-23T11:42:22.904Z,39.21
2022-08-23T11:43:22.914Z,38.92
2022-08-23T11:44:22.886Z,38.72
2022-08-23T11:45:22.868Z,38.42
2022-08-23T11:46:22.893Z,38.42
2022-08-23T11:47:22.884Z,39.32
2022-08-23T11:48:22.856Z,39.31
2022-08-23T11:49:22.839Z,38.82
2022-08-23T11:50:22.812Z,38.90
2022-08-23T11:51:22.818Z,38.39
2022-08-23T11:52:22.800Z,38.90
2022-08-23T11:53:22.981Z,38.80
2022-08-23T11:54:22.785Z,38.40
2022-08-23T11:55:22.757Z,38.70
2022-08-23T11:56:22.749Z,38.31
2022-08-23T11:57:22.730Z,38.40
2022-08-23T11:58:22.757Z,39.47
2022-08-23T11:59:22.719Z,37.90
2022-08-23T12:00:28.982Z,37.99
2022-08-23T12:01:23.723Z,37.98
2022-08-23T12:02:22.748Z,37.96
2022-08-23T12:03:22.772Z,37.29
2022-08-23T12:04:22.684Z,38.48
2022-08-23T12:05:22.655Z,38.29
2022-08-23T12:06:22.648Z,37.99
2022-08-23T12:07:22.666Z,36.91
2022-08-23T12:08:22.613Z,37.62
2022-08-23T12:09:22.601Z,37.03
2022-08-23T12:10:22.646Z,37.46
2022-08-23T12:11:22.594Z,38.15
2022-08-23T12:12:22.572Z,37.84
2022-08-23T12:13:22.576Z,37.90
2022-08-23T12:14:22.542Z,36.99
2022-08-23T12:15:22.626Z,36.70
2022-08-23T12:16:22.569Z,36.01
2022-08-23T12:17:22.515Z,35.72
2022-08-23T12:18:25.253Z,35.52
2022-08-23T12:19:22.542Z,36.01
2022-08-23T12:20:22.537Z,35.42
2022-08-23T12:21:22.503Z,35.23
2022-08-23T12:22:22.446Z,35.62
2022-08-23T12:23:22.460Z,36.21
2022-08-23T12:24:22.435Z,35.33
2022-08-23T12:25:22.419Z,35.31
2022-08-23T12:26:22.408Z,34.80
2022-08-23T12:27:22.428Z,34.31
2022-08-23T12:28:22.411Z,34.11
2022-08-23T12:29:22.380Z,33.82
2022-08-23T12:30:22.401Z,33.22
2022-08-23T12:31:22.399Z,33.70
2022-08-23T12:32:22.382Z,33.31
2022-08-23T12:33:22.351Z,32.73
2022-08-23T12:34:22.393Z,32.81
2022-08-23T12:35:22.311Z,32.90
2022-08-23T12:36:22.306Z,32.51
2022-08-23T12:37:22.301Z,32.82
2022-08-23T12:38:22.366Z,33.70
2022-08-23T12:39:22.262Z,33.53
2022-08-23T12:40:22.309Z,33.74
2022-08-23T12:41:22.244Z,34.01
2022-08-23T12:42:22.235Z,33.92
2022-08-23T12:43:22.558Z,33.62
2022-08-23T12:44:22.247Z,33.33
2022-08-23T12:45:22.196Z,33.31
2022-08-23T12:46:22.229Z,32.73
2022-08-23T12:47:22.186Z,32.63
2022-08-23T12:48:22.175Z,33.02
2022-08-23T12:49:22.157Z,32.43
2022-08-23T12:50:22.185Z,32.63
2022-08-23T12:51:23.136Z,32.23
2022-08-23T12:52:22.196Z,31.55
2022-08-23T12:53:22.124Z,31.55
2022-08-23T12:54:22.479Z,31.94